Have a Safe July 4th! 

Flight Track Log - Related Links

Times and Time Zones

All times are in EST time to prevent confusion due to time zone crossing. See the SKW6374 flight status page for this flight to view local times or setup timezone preferences in your user account.

Time Position Orientation Groundspeed Altitude Reporting Facility
EST Latitude Longitude Course Direction KTS MPH feet Rate Location/Type
Wed 03:23:31 PM 38.5294 -107.8928 68° East 131 151 6,100  Level Denver Center
Wed 03:24:34 PM 38.5847 -107.8842 North 167 192 8,900 2,304 Climbing Denver Center
Wed 03:25:00 PM 38.4663 -107.2774 95° East  Level FlightAware Approximate
Wed 03:25:36 PM 38.5425 -107.8081 125° Southeast 228 262 10,900  Level Denver Center
Wed 03:26:00 PM 38.4582 -107.1556 95° East  Level FlightAware Approximate
Wed 03:26:38 PM 38.5056 -107.7197 118° Southeast 269 310 12,700  Level Denver Center
Wed 03:27:00 PM 38.4500 -107.0338 95° East  Level FlightAware Approximate
Wed 03:27:40 PM 38.4967 -107.6011 95° East 331 381 15,300  Level Denver Center
Wed 03:28:00 PM 38.4849 -106.9201 68° East  Level FlightAware Approximate
Wed 03:28:42 PM 38.4861 -107.4719 96° East 349 402 17,600  Level Denver Center
Wed 03:29:44 PM 38.4756 -107.3456 96° East 371 427 19,500 2,129 Climbing Denver Center
Wed 03:30:46 PM 38.4633 -107.1956 96° East 381 438 22,000 2,129 Climbing Denver Center
Wed 03:31:48 PM 38.4542 -107.0611 95° East 394 453 23,900 1,452 Climbing Denver Center
Wed 03:32:50 PM 38.4892 -106.9267 72° East 404 465 25,000 485 Climbing Denver Center
Wed 03:34:04 PM 38.5456 -106.7578 67° East 426 490 25,000  Level Denver Center
Wed 03:35:06 PM 38.6017 -106.5861 67° East 436 502 25,000  Level Denver Center
Wed 03:36:08 PM 38.6464 -106.4450 68° East 430 495 25,000  Level Denver Center
Wed 03:37:10 PM 38.6925 -106.3039 67° East 431 496 25,000  Level Denver Center
Wed 03:38:12 PM 38.7392 -106.1594 67° East 434 499 25,000  Level Denver Center
Wed 03:39:14 PM 38.7914 -105.9994 67° East 434 499 25,000  Level Denver Center
Wed 03:40:16 PM 38.8336 -105.8653 68° East 428 493 25,000  Level Denver Center
Wed 03:41:30 PM 38.9175 -105.7408 49° Northeast 414 476 25,000  Level Denver Center
Wed 03:42:33 PM 39.0092 -105.6233 45° Northeast 415 478 25,000 -672 Level Denver Center
Wed 03:43:35 PM 39.0981 -105.5075 45° Northeast 410 472 23,600 -1,548 Descending Denver Center
Wed 03:44:37 PM 39.1681 -105.4186 45° Northeast 395 455 21,800 -1,887 Descending Denver Center
Wed 03:45:39 PM 39.2556 -105.3103 44° Northeast 370 426 19,700 -1,742 Descending Denver Center
Wed 03:46:41 PM 39.3233 -105.2394 39° Northeast 318 366 18,200 -1,403 Descending Denver Center
Wed 03:47:43 PM 39.3942 -105.1714 37° Northeast 317 365 16,800 -1,452 Descending Denver Center
Wed 03:48:45 PM 39.4697 -105.0972 37° Northeast 318 366 15,200 -1,306 Descending Denver Center
Wed 03:49:47 PM 39.5411 -105.0278 37° Northeast 322 371 14,100 -532 Descending Denver Center
Wed 03:50:49 PM 39.6136 -104.9556 37° Northeast 308 354 14,100 -339 Level Denver Center
Wed 03:51:51 PM 39.6817 -104.8889 37° Northeast 306 352 13,400 -968 Descending Denver Center
Wed 03:52:53 PM 39.7619 -104.8414 24° Northeast 302 348 12,100 -1,161 Descending Denver Center
Wed 03:53:55 PM 39.8397 -104.8403 North 283 326 11,000 -488 Descending Denver Center
Wed 03:54:56 PM 39.9078 -104.8392 North 242 278 11,100 -488 Climbing Denver Center
Wed 03:55:58 PM 39.9731 -104.8386 360° North 235 270 10,000 -1,306 Descending Denver Center
Wed 03:57:00 PM 40.0428 -104.8400 359° North 232 267 8,400 -1,452 Descending Denver Center
Wed 03:58:02 PM 40.0733 -104.7778 57° Northeast 227 261 7,000 -677 Descending Denver Center
Wed 03:59:04 PM 40.0294 -104.7367 144° Southeast 187 215 7,000  Level Denver Center
Wed 04:00:06 PM 39.9850 -104.7067 153° Southeast 181 208 7,000 -339 Level Denver Center
Wed 04:01:08 PM 39.9433 -104.6953 168° South 147 169 6,300 -677 Descending Denver Center
Wed 04:02:10 PM 39.9019 -104.6958 181° South 137 158 5,600 -677 Descending Denver Center

Login

Don't have an account? Register now (free) for customized features, flight alerts, and more!